createdAt,value
2018-01-06T00:00:07.122Z,22.81
2018-01-06T00:00:35.024Z,22.68
2018-01-06T00:01:03.004Z,22.8
2018-01-06T00:01:31.128Z,22.76
2018-01-06T00:01:59.113Z,22.71
2018-01-06T00:02:27.280Z,22.8
2018-01-06T00:02:55.202Z,22.78
2018-01-06T00:03:23.225Z,22.67
2018-01-06T00:03:51.389Z,22.65
2018-01-06T00:04:19.522Z,22.78
2018-01-06T00:04:47.454Z,22.76
2018-01-06T00:05:15.428Z,22.78
2018-01-06T00:05:43.517Z,22.71
2018-01-06T00:06:11.622Z,22.71
2018-01-06T00:06:39.621Z,22.78
2018-01-06T00:07:07.790Z,22.88
2018-01-06T00:07:35.906Z,22.76
2018-01-06T00:08:04.027Z,22.76
2018-01-06T00:08:32.055Z,22.73
2018-01-06T00:09:00.195Z,22.77
2018-01-06T00:09:28.329Z,22.76
2018-01-06T00:09:56.116Z,22.73
2018-01-06T00:10:24.171Z,22.76
2018-01-06T00:10:52.287Z,22.86
2018-01-06T00:11:20.364Z,22.89
2018-01-06T00:11:48.395Z,22.84
2018-01-06T00:12:16.426Z,22.88
2018-01-06T00:12:44.422Z,22.8
2018-01-06T00:13:12.600Z,22.8
2018-01-06T00:13:40.610Z,22.84
2018-01-06T00:14:08.758Z,22.84
2018-01-06T00:14:36.920Z,22.95
2018-01-06T00:15:05.018Z,22.98
2018-01-06T00:15:33.135Z,22.89
2018-01-06T00:16:01.171Z,22.95
2018-01-06T00:16:29.197Z,22.95
2018-01-06T00:16:57.279Z,22.96
2018-01-06T00:17:25.425Z,22.96
2018-01-06T00:17:53.565Z,22.98
2018-01-06T00:18:21.595Z,23.01
2018-01-06T00:18:49.753Z,22.99
2018-01-06T00:19:17.887Z,22.99
2018-01-06T00:19:45.941Z,23.04
2018-01-06T00:20:13.957Z,23.04
2018-01-06T00:20:42.047Z,22.98
2018-01-06T00:21:10.085Z,23.01
2018-01-06T00:21:38.117Z,22.93
2018-01-06T00:22:06.136Z,22.93
2018-01-06T00:22:34.266Z,23.01
2018-01-06T00:23:02.408Z,22.93
2018-01-06T00:23:30.325Z,22.95
2018-01-06T00:23:58.488Z,22.91
2018-01-06T00:24:26.723Z,22.99
2018-01-06T00:24:54.747Z,22.99
2018-01-06T00:25:22.907Z,22.98
2018-01-06T00:25:51.019Z,22.98
2018-01-06T00:26:19.153Z,22.99
2018-01-06T00:26:47.067Z,22.96
2018-01-06T00:27:15.065Z,22.98
2018-01-06T00:27:43.171Z,22.98
2018-01-06T00:28:11.225Z,23.01
2018-01-06T00:28:39.331Z,23.06
2018-01-06T00:29:07.370Z,23.08
2018-01-06T00:29:35.489Z,23.11
2018-01-06T00:30:03.647Z,23.1
2018-01-06T00:30:31.759Z,23.1
2018-01-06T00:30:59.795Z,23.07
2018-01-06T00:31:27.922Z,23.16
2018-01-06T00:31:56.004Z,23.11
2018-01-06T00:32:24.122Z,23.16
2018-01-06T00:32:51.942Z,23.02
2018-01-06T00:33:20.052Z,23.16
2018-01-06T00:33:48.231Z,23.17
2018-01-06T00:34:16.277Z,23.18
2018-01-06T00:34:44.283Z,23.11
2018-01-06T00:35:12.426Z,23.07
2018-01-06T00:35:40.510Z,23.08
2018-01-06T00:36:08.596Z,23.01
2018-01-06T00:36:36.735Z,22.96
2018-01-06T00:37:04.873Z,22.98
2018-01-06T00:37:32.668Z,22.84
2018-01-06T00:38:00.553Z,22.86
2018-01-06T00:38:28.698Z,22.91
2018-01-06T00:38:56.841Z,22.86
2018-01-06T00:39:25.034Z,22.84
2018-01-06T00:39:53.065Z,22.76
2018-01-06T00:40:21.157Z,22.84
2018-01-06T00:40:49.137Z,22.76
2018-01-06T00:41:17.138Z,22.83
2018-01-06T00:41:45.024Z,22.76
2018-01-06T00:42:13.166Z,22.77
2018-01-06T00:42:41.290Z,22.74
2018-01-06T00:43:09.197Z,22.74
2018-01-06T00:43:37.279Z,22.76
2018-01-06T00:44:05.413Z,22.83
2018-01-06T00:44:33.575Z,22.68
2018-01-06T00:45:01.412Z,22.67
2018-01-06T00:45:29.453Z,22.71
2018-01-06T00:45:57.565Z,22.62
2018-01-06T00:46:25.712Z,22.63
2018-01-06T00:46:53.656Z,22.63
2018-01-06T00:47:21.695Z,22.58
2018-01-06T00:47:49.739Z,22.53
2018-01-06T00:48:17.727Z,22.47
2018-01-06T00:48:45.651Z,22.47
2018-01-06T00:49:13.781Z,22.49
2018-01-06T00:49:41.822Z,22.44
2018-01-06T00:50:09.755Z,22.37
2018-01-06T00:50:37.806Z,22.38
2018-01-06T00:51:05.884Z,22.37
2018-01-06T00:51:33.987Z,22.38
2018-01-06T00:52:02.127Z,22.38
2018-01-06T00:52:30.201Z,22.41
2018-01-06T00:52:58.109Z,22.41
2018-01-06T00:53:26.173Z,22.38
2018-01-06T00:53:54.304Z,22.51
2018-01-06T00:54:22.433Z,22.47
2018-01-06T00:54:50.541Z,22.47
2018-01-06T00:55:18.683Z,22.49
2018-01-06T00:55:46.777Z,22.43
2018-01-06T00:56:14.890Z,22.47
2018-01-06T00:56:42.996Z,22.47
2018-01-06T00:57:10.936Z,22.41
2018-01-06T00:57:39.145Z,22.47
2018-01-06T00:58:07.284Z,22.46
2018-01-06T00:58:35.388Z,22.41
2018-01-06T00:59:03.436Z,22.43
2018-01-06T00:59:31.283Z,22.37
2018-01-06T00:59:59.610Z,22.38
2018-01-06T01:00:27.744Z,22.36
2018-01-06T01:00:55.826Z,22.37
2018-01-06T01:01:24.007Z,22.31
2018-01-06T01:01:52.081Z,22.37
2018-01-06T01:02:20.190Z,22.31
2018-01-06T01:02:48.179Z,22.31
2018-01-06T01:03:16.303Z,22.33
2018-01-06T01:03:44.316Z,22.33
2018-01-06T01:04:12.454Z,22.34
2018-01-06T01:04:40.577Z,22.28
2018-01-06T01:05:08.713Z,22.31
2018-01-06T01:05:36.839Z,22.4
2018-01-06T01:06:04.870Z,22.3
2018-01-06T01:06:33.050Z,22.28
2018-01-06T01:07:01.148Z,22.31
2018-01-06T01:07:29.175Z,22.37
2018-01-06T01:07:57.051Z,22.34
2018-01-06T01:08:25.074Z,22.37
2018-01-06T01:08:53.185Z,22.36
2018-01-06T01:09:21.188Z,22.3
2018-01-06T01:09:49.376Z,22.31
2018-01-06T01:10:17.345Z,22.37
2018-01-06T01:10:45.483Z,22.33
2018-01-06T01:11:13.653Z,22.28
2018-01-06T01:11:41.583Z,22.36
2018-01-06T01:12:09.620Z,22.33
2018-01-06T01:12:37.596Z,22.4
2018-01-06T01:13:05.508Z,22.41
2018-01-06T01:13:33.651Z,22.4
2018-01-06T01:14:01.774Z,22.38
2018-01-06T01:14:29.915Z,22.43
2018-01-06T01:14:58.193Z,22.4
2018-01-06T01:15:26.235Z,22.34
2018-01-06T01:15:54.325Z,22.43
2018-01-06T01:16:22.324Z,22.38
2018-01-06T01:16:51.097Z,22.41
2018-01-06T01:17:19.104Z,22.37
2018-01-06T01:17:47.094Z,22.33
2018-01-06T01:18:15.274Z,22.28
2018-01-06T01:18:43.404Z,22.33
2018-01-06T01:19:11.492Z,22.26
2018-01-06T01:19:39.633Z,22.37
2018-01-06T01:20:07.754Z,22.3
2018-01-06T01:20:35.790Z,22.38
2018-01-06T01:21:03.714Z,22.34
2018-01-06T01:21:31.777Z,22.37
2018-01-06T01:21:59.935Z,22.37
2018-01-06T01:22:27.985Z,22.4
2018-01-06T01:22:56.128Z,22.4
2018-01-06T01:23:24.321Z,22.34
2018-01-06T01:23:52.465Z,22.37
2018-01-06T01:24:20.609Z,22.33
2018-01-06T01:24:48.634Z,22.36
2018-01-06T01:25:16.524Z,22.31
2018-01-06T01:25:44.684Z,22.31
2018-01-06T01:26:12.809Z,22.3
2018-01-06T01:26:40.851Z,22.31
2018-01-06T01:27:08.897Z,22.3
2018-01-06T01:27:36.978Z,22.26
2018-01-06T01:28:05.000Z,22.33
2018-01-06T01:28:33.105Z,22.26
2018-01-06T01:29:01.143Z,22.3
2018-01-06T01:29:29.253Z,22.28
2018-01-06T01:29:57.292Z,22.34
2018-01-06T01:30:25.310Z,22.26
2018-01-06T01:30:53.431Z,22.15
2018-01-06T01:31:21.447Z,22.18
2018-01-06T01:31:49.320Z,22.19
2018-01-06T01:32:17.348Z,22.18
2018-01-06T01:32:45.543Z,22.34
2018-01-06T01:33:13.541Z,22.25
2018-01-06T01:33:41.587Z,22.36
2018-01-06T01:34:09.586Z,22.31
2018-01-06T01:34:37.282Z,22.31
2018-01-06T01:35:05.407Z,22.28
2018-01-06T01:35:33.535Z,22.28
2018-01-06T01:36:01.706Z,22.31
2018-01-06T01:36:29.857Z,22.37
2018-01-06T01:36:57.770Z,22.43
2018-01-06T01:37:25.685Z,22.37
2018-01-06T01:37:53.742Z,22.43
2018-01-06T01:38:21.819Z,22.37
2018-01-06T01:38:49.890Z,22.43
2018-01-06T01:39:17.932Z,22.41
2018-01-06T01:39:46.049Z,22.49
2018-01-06T01:40:14.141Z,22.43
2018-01-06T01:40:42.153Z,22.43
2018-01-06T01:41:10.153Z,22.44
2018-01-06T01:41:38.331Z,22.51
2018-01-06T01:42:06.464Z,22.49
2018-01-06T01:42:34.463Z,22.52
2018-01-06T01:43:02.447Z,22.56
2018-01-06T01:43:30.471Z,22.43
2018-01-06T01:43:58.588Z,22.56
2018-01-06T01:44:26.729Z,22.52
2018-01-06T01:44:54.892Z,22.56
2018-01-06T01:45:23.100Z,22.53
2018-01-06T01:45:51.123Z,22.52
2018-01-06T01:46:19.171Z,22.56
2018-01-06T01:46:47.235Z,22.55
2018-01-06T01:47:15.439Z,22.56
2018-01-06T01:47:43.324Z,22.63
2018-01-06T01:48:11.445Z,22.58
2018-01-06T01:48:39.455Z,22.68
2018-01-06T01:49:07.591Z,22.59
2018-01-06T01:49:35.512Z,22.59
2018-01-06T01:50:03.504Z,22.61
2018-01-06T01:50:31.504Z,22.52
2018-01-06T01:50:59.510Z,22.61
2018-01-06T01:51:27.627Z,22.53
2018-01-06T01:51:55.759Z,22.51
2018-01-06T01:52:23.921Z,22.56
2018-01-06T01:52:52.112Z,22.58
2018-01-06T01:53:20.320Z,22.51
2018-01-06T01:53:48.402Z,22.52
2018-01-06T01:54:16.511Z,22.51
2018-01-06T01:54:44.463Z,22.49
2018-01-06T01:55:12.574Z,22.46
2018-01-06T01:55:40.700Z,22.49
2018-01-06T01:56:08.825Z,22.52
2018-01-06T01:56:36.966Z,22.53
2018-01-06T01:57:04.989Z,22.53
2018-01-06T01:57:33.127Z,22.51
2018-01-06T01:58:01.255Z,22.51
2018-01-06T01:58:29.323Z,22.58
2018-01-06T01:58:57.470Z,22.55
2018-01-06T01:59:25.613Z,22.55
2018-01-06T01:59:53.672Z,22.56
2018-01-06T02:00:22.024Z,22.51
2018-01-06T02:00:50.017Z,22.61
2018-01-06T02:01:17.959Z,22.62
2018-01-06T02:01:46.108Z,22.63
2018-01-06T02:02:14.042Z,22.68
2018-01-06T02:02:42.159Z,22.67
2018-01-06T02:03:10.306Z,22.74
2018-01-06T02:03:38.481Z,22.73
2018-01-06T02:04:06.619Z,22.67
2018-01-06T02:04:34.793Z,22.74
2018-01-06T02:05:02.797Z,22.65
2018-01-06T02:05:30.957Z,22.65
2018-01-06T02:05:59.073Z,22.63
2018-01-06T02:06:27.139Z,22.67
2018-01-06T02:06:55.303Z,22.68
2018-01-06T02:07:23.420Z,22.71
2018-01-06T02:07:51.609Z,22.53
2018-01-06T02:08:19.821Z,22.51
2018-01-06T02:08:47.777Z,22.51
2018-01-06T02:09:15.911Z,22.49
2018-01-06T02:09:44.006Z,22.51
2018-01-06T02:10:12.065Z,22.49
2018-01-06T02:10:40.143Z,22.41
2018-01-06T02:11:08.279Z,22.4
2018-01-06T02:11:36.312Z,22.36
2018-01-06T02:12:04.421Z,22.38
2018-01-06T02:12:32.444Z,22.41
2018-01-06T02:13:00.464Z,22.37
2018-01-06T02:13:28.508Z,22.34
2018-01-06T02:13:56.639Z,22.4
2018-01-06T02:14:24.738Z,22.47
2018-01-06T02:14:52.879Z,22.41
2018-01-06T02:15:21.073Z,22.41
2018-01-06T02:15:49.287Z,22.47
2018-01-06T02:16:17.431Z,22.41
2018-01-06T02:16:45.591Z,22.37
2018-01-06T02:17:13.606Z,22.36
2018-01-06T02:17:41.730Z,22.4
2018-01-06T02:18:09.850Z,22.38
2018-01-06T02:18:37.777Z,22.41
2018-01-06T02:19:05.723Z,22.38
2018-01-06T02:19:33.866Z,22.4
2018-01-06T02:20:01.992Z,22.4
2018-01-06T02:20:30.004Z,22.41
2018-01-06T02:20:58.816Z,22.44
2018-01-06T02:21:26.860Z,22.37
2018-01-06T02:21:54.995Z,22.41
2018-01-06T02:22:23.142Z,22.41
2018-01-06T02:22:51.054Z,22.38
2018-01-06T02:23:19.077Z,22.36
2018-01-06T02:23:47.211Z,22.3
2018-01-06T02:24:15.362Z,22.33
2018-01-06T02:24:43.406Z,22.36
2018-01-06T02:25:11.508Z,22.36
2018-01-06T02:25:39.586Z,22.31
2018-01-06T02:26:07.737Z,22.34
2018-01-06T02:26:35.828Z,22.33
2018-01-06T02:27:03.913Z,22.31
2018-01-06T02:27:32.076Z,22.3
2018-01-06T02:28:00.052Z,22.3
2018-01-06T02:28:28.174Z,22.3
2018-01-06T02:28:56.277Z,22.33
2018-01-06T02:29:24.398Z,22.28
2018-01-06T02:29:52.385Z,22.33
2018-01-06T02:30:20.299Z,22.33
2018-01-06T02:30:48.598Z,22.33
2018-01-06T02:31:16.712Z,22.4
2018-01-06T02:31:44.840Z,22.36
2018-01-06T02:32:12.967Z,22.38
2018-01-06T02:32:41.113Z,22.37
2018-01-06T02:33:09.151Z,22.44
2018-01-06T02:33:37.158Z,22.4
2018-01-06T02:34:05.055Z,22.34
2018-01-06T02:34:33.235Z,22.33
2018-01-06T02:35:01.196Z,22.31
2018-01-06T02:35:29.342Z,22.28
2018-01-06T02:35:57.503Z,22.31
2018-01-06T02:36:25.641Z,22.25
2018-01-06T02:36:53.793Z,22.23
2018-01-06T02:37:21.820Z,22.34
2018-01-06T02:37:49.967Z,22.28
2018-01-06T02:38:17.911Z,22.19
2018-01-06T02:38:46.036Z,22.19
2018-01-06T02:39:14.217Z,22.18
2018-01-06T02:39:42.291Z,22.3
2018-01-06T02:40:10.441Z,22.15
2018-01-06T02:40:38.581Z,22.19
2018-01-06T02:41:06.641Z,22.19
2018-01-06T02:41:34.763Z,22.21
2018-01-06T02:42:02.596Z,22.18
2018-01-06T02:42:30.720Z,22.23
2018-01-06T02:42:58.793Z,22.18
2018-01-06T02:43:26.945Z,22.22
2018-01-06T02:43:55.087Z,22.18
2018-01-06T02:44:23.222Z,22.21
2018-01-06T02:44:51.117Z,22.18
2018-01-06T02:45:19.156Z,22.19
2018-01-06T02:45:47.268Z,22.18
2018-01-06T02:46:15.511Z,22.21
2018-01-06T02:46:43.626Z,22.21
2018-01-06T02:47:11.786Z,22.18
2018-01-06T02:47:39.954Z,22.22
2018-01-06T02:48:08.024Z,22.22
2018-01-06T02:48:36.007Z,22.21
2018-01-06T02:49:04.122Z,22.22
2018-01-06T02:49:32.311Z,22.19
2018-01-06T02:50:01.186Z,22.21
2018-01-06T02:50:29.202Z,22.25
2018-01-06T02:50:57.163Z,22.16
2018-01-06T02:51:25.175Z,22.19
2018-01-06T02:51:53.252Z,22.19
2018-01-06T02:52:21.169Z,22.18
2018-01-06T02:52:49.319Z,22.28
2018-01-06T02:53:17.419Z,22.21
2018-01-06T02:53:45.443Z,22.21
2018-01-06T02:54:13.491Z,22.18
2018-01-06T02:54:41.542Z,22.16
2018-01-06T02:55:09.693Z,22.23
2018-01-06T02:55:37.858Z,22.26
2018-01-06T02:56:05.979Z,22.22
2018-01-06T02:56:33.973Z,22.28
2018-01-06T02:57:02.000Z,22.33
2018-01-06T02:57:30.056Z,22.36
2018-01-06T02:57:58.209Z,22.28
2018-01-06T02:58:26.132Z,22.36
2018-01-06T02:58:54.120Z,22.36
2018-01-06T02:59:22.018Z,22.4
2018-01-06T02:59:49.984Z,22.38
2018-01-06T03:00:18.136Z,22.44
2018-01-06T03:00:46.213Z,22.4
2018-01-06T03:01:14.251Z,22.41
2018-01-06T03:01:42.166Z,22.43
2018-01-06T03:02:10.288Z,22.46
2018-01-06T03:02:38.420Z,22.46
2018-01-06T03:03:06.594Z,22.41
2018-01-06T03:03:34.669Z,22.4
2018-01-06T03:04:02.778Z,22.49
2018-01-06T03:04:30.786Z,22.46
2018-01-06T03:04:58.865Z,22.47
2018-01-06T03:05:27.027Z,22.51
2018-01-06T03:05:55.032Z,22.46
2018-01-06T03:06:23.122Z,22.51
2018-01-06T03:06:51.216Z,22.52
2018-01-06T03:07:19.296Z,22.53
2018-01-06T03:07:47.344Z,22.49
2018-01-06T03:08:15.485Z,22.4
2018-01-06T03:08:43.605Z,22.47
2018-01-06T03:09:11.648Z,22.47
2018-01-06T03:09:39.750Z,22.46
2018-01-06T03:10:07.772Z,22.47
2018-01-06T03:10:35.677Z,22.4
2018-01-06T03:11:03.780Z,22.43
2018-01-06T03:11:31.888Z,22.4
2018-01-06T03:11:59.985Z,22.38
2018-01-06T03:12:28.043Z,22.38
2018-01-06T03:12:56.101Z,22.41
2018-01-06T03:13:24.238Z,22.3
2018-01-06T03:13:52.358Z,22.37
2018-01-06T03:14:20.477Z,22.31
2018-01-06T03:14:48.389Z,22.31
2018-01-06T03:15:16.400Z,22.3
2018-01-06T03:15:44.357Z,22.3
2018-01-06T03:16:12.523Z,22.31
2018-01-06T03:16:40.462Z,22.31
2018-01-06T03:17:08.507Z,22.3
2018-01-06T03:17:36.677Z,22.31
2018-01-06T03:18:04.805Z,22.31
2018-01-06T03:18:32.914Z,22.31
2018-01-06T03:19:01.014Z,22.34
2018-01-06T03:19:29.154Z,22.31
2018-01-06T03:19:57.180Z,22.31
2018-01-06T03:20:25.347Z,22.31
2018-01-06T03:20:53.431Z,22.31
2018-01-06T03:21:21.539Z,22.33
2018-01-06T03:21:49.570Z,22.31
2018-01-06T03:22:17.572Z,22.33
2018-01-06T03:22:45.700Z,22.26
2018-01-06T03:23:13.616Z,22.33
2018-01-06T03:23:41.735Z,22.3
2018-01-06T03:24:09.890Z,22.33
2018-01-06T03:24:38.034Z,22.18
2018-01-06T03:25:06.104Z,22.19
2018-01-06T03:25:34.201Z,22.19
2018-01-06T03:26:02.330Z,22.19
2018-01-06T03:26:30.454Z,22.08
2018-01-06T03:26:58.633Z,22.15
2018-01-06T03:27:26.702Z,22.04
2018-01-06T03:27:54.831Z,22.14
2018-01-06T03:28:22.834Z,22.15
2018-01-06T03:28:50.973Z,22.1
2018-01-06T03:29:19.124Z,22.08
2018-01-06T03:29:47.284Z,22.16
2018-01-06T03:30:15.102Z,22.21
2018-01-06T03:30:43.122Z,22.21
2018-01-06T03:31:11.109Z,22.16
2018-01-06T03:31:39.226Z,22.15
2018-01-06T03:32:07.255Z,22.21
2018-01-06T03:32:35.401Z,22.21
2018-01-06T03:33:03.414Z,22.15
2018-01-06T03:33:31.362Z,22.23
2018-01-06T03:33:59.458Z,22.18
2018-01-06T03:34:27.498Z,22.21
2018-01-06T03:34:55.556Z,22.21
2018-01-06T03:35:23.687Z,22.25
2018-01-06T03:35:51.824Z,22.21
2018-01-06T03:36:19.868Z,22.22
2018-01-06T03:36:47.944Z,22.22
2018-01-06T03:37:16.006Z,22.19
2018-01-06T03:37:44.156Z,22.19
2018-01-06T03:38:12.141Z,22.21
2018-01-06T03:38:40.287Z,22.19
2018-01-06T03:39:08.427Z,22.16
2018-01-06T03:39:36.467Z,22.15
2018-01-06T03:40:04.622Z,22.15
2018-01-06T03:40:32.794Z,22.19
2018-01-06T03:41:00.774Z,22.19
2018-01-06T03:41:28.927Z,22.14
2018-01-06T03:41:56.897Z,22.21
2018-01-06T03:42:24.830Z,22.16
2018-01-06T03:42:52.936Z,22.19
2018-01-06T03:43:21.071Z,22.19
2018-01-06T03:43:49.198Z,22.18
2018-01-06T03:44:17.284Z,22.15
2018-01-06T03:44:45.388Z,22.16
2018-01-06T03:45:13.400Z,22.12
2018-01-06T03:45:41.546Z,22.14
2018-01-06T03:46:09.632Z,22.19
2018-01-06T03:46:37.666Z,22.16
2018-01-06T03:47:05.760Z,22.16
2018-01-06T03:47:33.799Z,22.16
2018-01-06T03:48:01.890Z,22.18
2018-01-06T03:48:29.990Z,22.18
2018-01-06T03:48:58.109Z,22.31
2018-01-06T03:49:26.190Z,22.23
2018-01-06T03:49:54.326Z,22.26
2018-01-06T03:50:22.349Z,22.28
2018-01-06T03:50:50.472Z,22.28
2018-01-06T03:51:18.665Z,22.22
2018-01-06T03:51:46.852Z,22.26
2018-01-06T03:52:14.876Z,22.21
2018-01-06T03:52:42.907Z,22.25
2018-01-06T03:53:10.981Z,22.28
2018-01-06T03:53:39.026Z,22.3
2018-01-06T03:54:07.040Z,22.28
2018-01-06T03:54:34.918Z,22.31
2018-01-06T03:55:03.029Z,22.34
2018-01-06T03:55:31.012Z,22.3
2018-01-06T03:55:59.171Z,22.31
2018-01-06T03:56:27.312Z,22.34
2018-01-06T03:56:55.348Z,22.31
2018-01-06T03:57:23.455Z,22.3
2018-01-06T03:57:51.494Z,22.37
2018-01-06T03:58:19.513Z,22.28
2018-01-06T03:58:47.560Z,22.33
2018-01-06T03:59:15.666Z,22.33
2018-01-06T03:59:43.653Z,22.31
2018-01-06T04:00:11.763Z,22.33
2018-01-06T04:00:39.938Z,22.33
2018-01-06T04:01:08.112Z,22.33
2018-01-06T04:01:36.275Z,22.34
2018-01-06T04:02:04.173Z,22.31
2018-01-06T04:02:32.218Z,22.31
2018-01-06T04:03:00.109Z,22.34
2018-01-06T04:03:28.208Z,22.34
2018-01-06T04:03:56.394Z,22.33
2018-01-06T04:04:24.549Z,22.33
2018-01-06T04:04:52.704Z,22.34
2018-01-06T04:05:20.816Z,22.34
2018-01-06T04:05:48.962Z,22.34
2018-01-06T04:06:17.104Z,22.41
2018-01-06T04:06:45.262Z,22.4
2018-01-06T04:07:13.369Z,22.36
2018-01-06T04:07:41.472Z,22.28
2018-01-06T04:08:09.598Z,22.31
2018-01-06T04:08:37.797Z,22.33
2018-01-06T04:09:05.811Z,22.33
2018-01-06T04:09:33.813Z,22.34
2018-01-06T04:10:01.945Z,22.33
2018-01-06T04:10:29.966Z,22.34
2018-01-06T04:10:58.021Z,22.38
2018-01-06T04:11:26.126Z,22.36
2018-01-06T04:11:54.118Z,22.3
2018-01-06T04:12:22.228Z,22.3
2018-01-06T04:12:50.332Z,22.3
2018-01-06T04:13:18.377Z,22.23
2018-01-06T04:13:46.421Z,22.33
2018-01-06T04:14:14.401Z,22.34
2018-01-06T04:14:42.438Z,22.33
2018-01-06T04:15:10.578Z,22.28
2018-01-06T04:15:38.696Z,22.3
2018-01-06T04:16:06.707Z,22.28
2018-01-06T04:16:34.727Z,22.34
2018-01-06T04:17:02.937Z,22.31
2018-01-06T04:17:31.055Z,22.25
2018-01-06T04:17:59.183Z,22.25
2018-01-06T04:18:27.274Z,22.3
2018-01-06T04:18:55.283Z,22.28
2018-01-06T04:19:23.460Z,22.3
2018-01-06T04:19:51.528Z,22.28
2018-01-06T04:20:19.653Z,22.3
2018-01-06T04:20:47.702Z,22.3
2018-01-06T04:21:15.722Z,22.25
2018-01-06T04:21:43.844Z,22.26
2018-01-06T04:22:12.007Z,22.33
2018-01-06T04:22:40.926Z,22.28
2018-01-06T04:23:09.090Z,22.23
2018-01-06T04:23:37.120Z,22.34
2018-01-06T04:24:04.999Z,22.25
2018-01-06T04:24:33.135Z,22.23
2018-01-06T04:25:01.276Z,22.23
2018-01-06T04:25:29.320Z,22.28
2018-01-06T04:25:57.322Z,22.33
2018-01-06T04:26:25.392Z,22.34
2018-01-06T04:26:53.445Z,22.3
2018-01-06T04:27:21.556Z,22.3
2018-01-06T04:27:49.638Z,22.26
2018-01-06T04:28:17.684Z,22.23
2018-01-06T04:28:45.816Z,22.18
2018-01-06T04:29:13.820Z,22.19
2018-01-06T04:29:41.731Z,22.18
2018-01-06T04:30:09.845Z,22.12
2018-01-06T04:30:37.789Z,22.07
2018-01-06T04:31:05.905Z,22.07
2018-01-06T04:31:34.084Z,22.15
2018-01-06T04:32:02.204Z,22.15
2018-01-06T04:32:30.186Z,22.12
2018-01-06T04:32:58.340Z,22.14
2018-01-06T04:33:26.271Z,22.12
2018-01-06T04:33:54.394Z,22.12
2018-01-06T04:34:22.551Z,22.08
2018-01-06T04:34:50.590Z,22.12
2018-01-06T04:35:18.688Z,22.12
2018-01-06T04:35:46.859Z,22.12
2018-01-06T04:36:15.001Z,22.14
2018-01-06T04:36:43.044Z,22.12
2018-01-06T04:37:11.207Z,22.06
2018-01-06T04:37:39.331Z,22.04
2018-01-06T04:38:07.297Z,22.12
2018-01-06T04:38:35.414Z,22.08
2018-01-06T04:39:03.463Z,22.12
2018-01-06T04:39:31.594Z,22.14
2018-01-06T04:39:59.630Z,22.1
2018-01-06T04:40:27.426Z,22.1
2018-01-06T04:40:55.448Z,22.12
2018-01-06T04:41:23.570Z,22.08
2018-01-06T04:41:51.694Z,22.1
2018-01-06T04:42:19.817Z,22.22
2018-01-06T04:42:47.921Z,22.19
2018-01-06T04:43:16.038Z,22.15
2018-01-06T04:43:44.068Z,22.16
2018-01-06T04:44:12.173Z,22.18
2018-01-06T04:44:40.308Z,22.25
2018-01-06T04:45:08.471Z,22.26
2018-01-06T04:45:36.551Z,22.18
2018-01-06T04:46:04.684Z,22.25
2018-01-06T04:46:32.766Z,22.18
2018-01-06T04:47:00.928Z,22.18
2018-01-06T04:47:29.156Z,22.22
2018-01-06T04:47:57.270Z,22.18
2018-01-06T04:48:25.386Z,22.22
2018-01-06T04:48:53.521Z,22.15
2018-01-06T04:49:21.653Z,22.07
2018-01-06T04:49:49.698Z,22.14
2018-01-06T04:50:17.617Z,22.15
2018-01-06T04:50:45.764Z,22.01
2018-01-06T04:51:13.923Z,22.08
2018-01-06T04:51:42.015Z,22
2018-01-06T04:52:10.191Z,22.08
2018-01-06T04:52:38.266Z,22.07
2018-01-06T04:53:06.414Z,22.04
2018-01-06T04:53:34.444Z,22.01
2018-01-06T04:54:02.581Z,22.04
2018-01-06T04:54:30.414Z,22.03
2018-01-06T04:54:58.569Z,22.04
2018-01-06T04:55:26.641Z,22.1
2018-01-06T04:55:54.749Z,22.1
2018-01-06T04:56:22.842Z,22.14
2018-01-06T04:56:50.917Z,22.15
2018-01-06T04:57:18.953Z,22.15
2018-01-06T04:57:47.089Z,22.15
2018-01-06T04:58:15.104Z,22.19
2018-01-06T04:58:43.196Z,22.1
2018-01-06T04:59:11.204Z,22.22
2018-01-06T04:59:39.321Z,22.21
2018-01-06T05:00:07.141Z,22.18
2018-01-06T05:00:35.175Z,22.21
2018-01-06T05:01:03.162Z,22.19
2018-01-06T05:01:31.246Z,22.18
2018-01-06T05:01:59.185Z,22.19
2018-01-06T05:02:27.306Z,22.12
2018-01-06T05:02:55.424Z,22.15
2018-01-06T05:03:23.557Z,22.14
2018-01-06T05:03:51.695Z,22.06
2018-01-06T05:04:19.809Z,22.15
2018-01-06T05:04:47.784Z,22.06
2018-01-06T05:05:15.930Z,22.14
2018-01-06T05:05:44.155Z,22.15
2018-01-06T05:06:12.174Z,22.15
2018-01-06T05:06:40.192Z,22.08
2018-01-06T05:07:08.329Z,22.14
2018-01-06T05:07:36.472Z,22.15
2018-01-06T05:08:04.561Z,22.06
2018-01-06T05:08:32.662Z,22.1
2018-01-06T05:09:00.700Z,22.06
2018-01-06T05:09:28.729Z,22.1
2018-01-06T05:09:56.766Z,22.03
2018-01-06T05:10:24.801Z,22.04
2018-01-06T05:10:52.959Z,22.08
2018-01-06T05:11:21.040Z,22.06
2018-01-06T05:11:49.062Z,22.01
2018-01-06T05:12:16.981Z,21.99
2018-01-06T05:12:44.926Z,22.06
2018-01-06T05:13:12.988Z,22
2018-01-06T05:13:41.102Z,21.99
2018-01-06T05:14:09.104Z,21.97
2018-01-06T05:14:37.115Z,21.91
2018-01-06T05:15:05.187Z,21.99
2018-01-06T05:15:33.316Z,21.99
2018-01-06T05:16:01.147Z,21.99
2018-01-06T05:16:29.203Z,21.96
2018-01-06T05:16:57.365Z,21.96
2018-01-06T05:17:25.371Z,21.97
2018-01-06T05:17:53.430Z,21.96
2018-01-06T05:18:21.444Z,21.96
2018-01-06T05:18:49.382Z,21.92
2018-01-06T05:19:17.431Z,21.92
2018-01-06T05:19:45.500Z,21.89
2018-01-06T05:20:13.594Z,21.91
2018-01-06T05:20:41.729Z,21.97
2018-01-06T05:21:09.858Z,21.94
2018-01-06T05:21:37.982Z,22.03
2018-01-06T05:22:06.047Z,22.04
2018-01-06T05:22:34.120Z,22.03
2018-01-06T05:23:02.307Z,22.07
2018-01-06T05:23:30.387Z,22.06
2018-01-06T05:23:58.553Z,22.07
2018-01-06T05:24:26.681Z,22.07
2018-01-06T05:24:54.751Z,22.04
2018-01-06T05:25:22.912Z,22.08
2018-01-06T05:25:51.074Z,22.08
2018-01-06T05:26:19.213Z,22.15
2018-01-06T05:26:47.283Z,22.1
2018-01-06T05:27:15.324Z,22.15
2018-01-06T05:27:43.432Z,22.16
2018-01-06T05:28:11.467Z,22.14
2018-01-06T05:28:39.473Z,22.08
2018-01-06T05:29:07.573Z,22.14
2018-01-06T05:29:35.582Z,22.12
2018-01-06T05:30:03.717Z,22.08
2018-01-06T05:30:31.776Z,22.07
2018-01-06T05:30:59.820Z,22.14
2018-01-06T05:31:27.720Z,22.08
2018-01-06T05:31:55.735Z,22.12
2018-01-06T05:32:23.761Z,22.14
2018-01-06T05:32:51.813Z,22.03
2018-01-06T05:33:19.902Z,22.1
2018-01-06T05:33:48.044Z,22.03
2018-01-06T05:34:16.166Z,22.01
2018-01-06T05:34:44.131Z,22.06
2018-01-06T05:35:12.139Z,22.07
2018-01-06T05:35:40.262Z,22.01
2018-01-06T05:36:08.315Z,22.08
2018-01-06T05:36:36.363Z,22.04
2018-01-06T05:37:04.462Z,22.03
2018-01-06T05:37:32.398Z,22.07
2018-01-06T05:38:00.517Z,21.99
2018-01-06T05:38:28.681Z,22.07
2018-01-06T05:38:56.634Z,22.06
2018-01-06T05:39:24.580Z,22
2018-01-06T05:39:52.416Z,22.07
2018-01-06T05:40:20.370Z,22.03
2018-01-06T05:40:48.336Z,22.1
2018-01-06T05:41:16.498Z,22.01
2018-01-06T05:41:44.625Z,22.07
2018-01-06T05:42:12.747Z,22.04
2018-01-06T05:42:40.819Z,22.08
2018-01-06T05:43:08.976Z,22.1
2018-01-06T05:43:37.002Z,21.99
2018-01-06T05:44:05.050Z,22.01
2018-01-06T05:44:33.065Z,22.04
2018-01-06T05:45:01.238Z,22.06
2018-01-06T05:45:29.248Z,21.99
2018-01-06T05:45:57.241Z,22.1
2018-01-06T05:46:25.249Z,22.04
2018-01-06T05:46:53.123Z,22.07
2018-01-06T05:47:21.025Z,22.04
2018-01-06T05:47:49.071Z,22.06
2018-01-06T05:48:16.999Z,22.06
2018-01-06T05:48:45.094Z,22.07
2018-01-06T05:49:13.014Z,21.99
2018-01-06T05:49:40.930Z,21.99
2018-01-06T05:50:09.074Z,22.01
2018-01-06T05:50:37.047Z,21.97
2018-01-06T05:51:05.162Z,21.96
2018-01-06T05:51:33.072Z,22.01
2018-01-06T05:52:01.079Z,21.99
2018-01-06T05:52:29.232Z,22
2018-01-06T05:52:57.170Z,21.97
2018-01-06T05:53:25.278Z,21.94
2018-01-06T05:53:53.415Z,21.97
2018-01-06T05:54:21.411Z,22
2018-01-06T05:54:49.519Z,21.99
2018-01-06T05:55:17.513Z,21.96
2018-01-06T05:55:45.618Z,21.99
2018-01-06T05:56:13.673Z,21.96
2018-01-06T05:56:41.697Z,21.97
2018-01-06T05:57:09.857Z,21.99
2018-01-06T05:57:37.938Z,21.91
2018-01-06T05:58:05.993Z,21.99
2018-01-06T05:58:34.149Z,21.97
2018-01-06T05:59:02.211Z,21.99
2018-01-06T05:59:30.235Z,21.94
2018-01-06T05:59:58.343Z,21.99
2018-01-06T06:00:26.419Z,22.07
2018-01-06T06:00:54.406Z,21.97
2018-01-06T06:01:22.427Z,21.99
2018-01-06T06:01:50.342Z,22
2018-01-06T06:02:18.483Z,22.01
2018-01-06T06:02:46.638Z,22